EZY207P EGKK-EGAC
Flight info
| Callsign | EZY207P |
|---|---|
| Flight time | 1h 0m |
| Altitude | 36000 |
| Route | LAM L10 BPK UN601 LESTA UP6 RODOL UM65 TENSO L603 BELOX DCT REMSI DCT NINEB M148 MAGEE |
| Aircraft | A319/M-SDE2E3FGIJ1RWXYZ/LB1 |
Departure
| Time | 2026-05-06 21:38 |
|---|---|
| Airport | London Gatwick Airport (EGKK) |
Arrival
| Time | 2026-05-06 22:38 |
|---|---|
| Airport | George Best Belfast City Airport (EGAC) |
| Time | Latitude | Longitude | Altitude | Speed | Heading |
|---|---|---|---|---|---|
| 2026-05-06 21:10 | 51.15817 | -0.17937 | 204 ft | 0 kts | 77° |
| 2026-05-06 21:26 | 51.15817 | -0.17943 | 204 ft | 3 kts | 77° |
| 2026-05-06 21:26 | 51.15811 | -0.17985 | 207 ft | 4 kts | 77° |
| 2026-05-06 21:27 | 51.15806 | -0.18020 | 216 ft | 2 kts | 77° |
| 2026-05-06 21:27 | 51.15805 | -0.18056 | 216 ft | 4 kts | 130° |
| 2026-05-06 21:27 | 51.15825 | -0.18072 | 216 ft | 4 kts | 167° |
| 2026-05-06 21:27 | 51.15834 | -0.18075 | 216 ft | 0 kts | 167° |
| 2026-05-06 21:30 | 51.15825 | -0.18072 | 216 ft | 4 kts | 167° |
| 2026-05-06 21:30 | 51.15781 | -0.18057 | 208 ft | 9 kts | 168° |
| 2026-05-06 21:31 | 51.15720 | -0.18036 | 205 ft | 9 kts | 168° |
| 2026-05-06 21:31 | 51.15679 | -0.18100 | 206 ft | 12 kts | 259° |
| 2026-05-06 21:31 | 51.15661 | -0.18241 | 210 ft | 14 kts | 257° |
| 2026-05-06 21:31 | 51.15614 | -0.18351 | 211 ft | 13 kts | 184° |
| 2026-05-06 21:32 | 51.15497 | -0.18314 | 210 ft | 20 kts | 168° |
| 2026-05-06 21:32 | 51.15231 | -0.18222 | 206 ft | 16 kts | 167° |
| 2026-05-06 21:32 | 51.15184 | -0.18326 | 204 ft | 15 kts | 268° |
| 2026-05-06 21:33 | 51.15164 | -0.18488 | 204 ft | 15 kts | 256° |
| 2026-05-06 21:33 | 51.15140 | -0.18654 | 207 ft | 16 kts | 258° |
| 2026-05-06 21:33 | 51.15115 | -0.18841 | 214 ft | 18 kts | 257° |
| 2026-05-06 21:33 | 51.15088 | -0.19039 | 204 ft | 19 kts | 258° |
| 2026-05-06 21:34 | 51.15059 | -0.19250 | 204 ft | 21 kts | 257° |
| 2026-05-06 21:34 | 51.15028 | -0.19477 | 210 ft | 21 kts | 258° |
| 2026-05-06 21:34 | 51.14995 | -0.19717 | 204 ft | 23 kts | 258° |
| 2026-05-06 21:34 | 51.14961 | -0.19963 | 204 ft | 23 kts | 257° |
| 2026-05-06 21:35 | 51.14926 | -0.20217 | 206 ft | 24 kts | 258° |
| 2026-05-06 21:35 | 51.14891 | -0.20471 | 205 ft | 23 kts | 257° |
| 2026-05-06 21:35 | 51.14856 | -0.20723 | 213 ft | 23 kts | 257° |
| 2026-05-06 21:35 | 51.14821 | -0.20972 | 207 ft | 23 kts | 257° |
| 2026-05-06 21:36 | 51.14780 | -0.21204 | 206 ft | 21 kts | 253° |
| 2026-05-06 21:36 | 51.14746 | -0.21387 | 209 ft | 14 kts | 221° |
| 2026-05-06 21:36 | 51.14654 | -0.21350 | 209 ft | 17 kts | 140° |
| 2026-05-06 21:36 | 51.14543 | -0.21273 | 207 ft | 18 kts | 136° |
| 2026-05-06 21:37 | 51.14532 | -0.21092 | 207 ft | 17 kts | 76° |
| 2026-05-06 21:37 | 51.14559 | -0.20889 | 209 ft | 26 kts | 78° |
| 2026-05-06 21:37 | 51.14662 | -0.20126 | 205 ft | 114 kts | 77° |
| 2026-05-06 21:37 | 51.14884 | -0.18531 | 361 ft | 166 kts | 77° |
| 2026-05-06 21:38 | 51.15151 | -0.16707 | 1063 ft | 177 kts | 76° |
| 2026-05-06 21:38 | 51.15433 | -0.14674 | 1472 ft | 201 kts | 75° |
| 2026-05-06 21:38 | 51.15744 | -0.12399 | 1953 ft | 225 kts | 76° |
| 2026-05-06 21:38 | 51.16096 | -0.09805 | 2558 ft | 246 kts | 76° |
| 2026-05-06 21:39 | 51.16542 | -0.07122 | 3427 ft | 255 kts | 65° |
| 2026-05-06 21:39 | 51.17523 | -0.04745 | 4371 ft | 260 kts | 51° |
| 2026-05-06 21:39 | 51.18640 | -0.02446 | 5336 ft | 265 kts | 51° |
| 2026-05-06 21:39 | 51.19780 | -0.00104 | 6304 ft | 269 kts | 52° |
| 2026-05-06 21:40 | 51.20934 | 0.02274 | 7201 ft | 274 kts | 51° |
| 2026-05-06 21:40 | 51.22110 | 0.04701 | 8094 ft | 279 kts | 51° |
| 2026-05-06 21:40 | 51.23288 | 0.07133 | 8979 ft | 283 kts | 51° |
| 2026-05-06 21:40 | 51.24461 | 0.09690 | 9862 ft | 289 kts | 58° |
| 2026-05-06 21:41 | 51.25231 | 0.12678 | 10637 ft | 296 kts | 75° |
| 2026-05-06 21:41 | 51.25627 | 0.15919 | 11463 ft | 299 kts | 78° |
| 2026-05-06 21:41 | 51.26012 | 0.19203 | 12292 ft | 303 kts | 78° |
| 2026-05-06 21:41 | 51.26399 | 0.22520 | 13113 ft | 306 kts | 78° |
| 2026-05-06 21:42 | 51.26791 | 0.25886 | 13913 ft | 310 kts | 78° |
| 2026-05-06 21:42 | 51.27334 | 0.29225 | 14596 ft | 313 kts | 65° |
| 2026-05-06 21:42 | 51.28537 | 0.32112 | 15284 ft | 314 kts | 44° |
| 2026-05-06 21:42 | 51.30307 | 0.34136 | 15977 ft | 315 kts | 22° |
| 2026-05-06 21:43 | 51.32417 | 0.35027 | 16661 ft | 316 kts | 2° |
| 2026-05-06 21:43 | 51.34594 | 0.34679 | 17380 ft | 317 kts | 341° |
| 2026-05-06 21:43 | 51.36659 | 0.33418 | 18085 ft | 319 kts | 336° |
| 2026-05-06 21:43 | 51.38727 | 0.32071 | 18738 ft | 323 kts | 336° |
| 2026-05-06 21:44 | 51.40815 | 0.30703 | 19355 ft | 326 kts | 336° |
| 2026-05-06 21:44 | 51.42923 | 0.29324 | 19957 ft | 329 kts | 336° |
| 2026-05-06 21:44 | 51.44331 | 0.28406 | 20370 ft | 331 kts | 336° |
| 2026-05-06 21:44 | 51.46471 | 0.27014 | 20984 ft | 334 kts | 336° |
| 2026-05-06 21:45 | 51.48634 | 0.25607 | 21592 ft | 337 kts | 336° |
| 2026-05-06 21:45 | 51.50815 | 0.24186 | 22195 ft | 340 kts | 336° |
| 2026-05-06 21:45 | 51.53017 | 0.22751 | 22796 ft | 343 kts | 336° |
| 2026-05-06 21:45 | 51.55242 | 0.21300 | 23395 ft | 346 kts | 336° |
| 2026-05-06 21:46 | 51.57485 | 0.19835 | 23920 ft | 350 kts | 336° |
| 2026-05-06 21:46 | 51.59745 | 0.18358 | 24429 ft | 352 kts | 336° |
| 2026-05-06 21:46 | 51.62005 | 0.16804 | 24922 ft | 354 kts | 330° |
| 2026-05-06 21:46 | 51.64073 | 0.14664 | 25414 ft | 354 kts | 319° |
| 2026-05-06 21:47 | 51.65852 | 0.11884 | 25641 ft | 363 kts | 308° |
| 2026-05-06 21:47 | 51.67318 | 0.08483 | 25778 ft | 375 kts | 301° |
| 2026-05-06 21:47 | 51.68749 | 0.04885 | 25905 ft | 388 kts | 301° |
| 2026-05-06 21:47 | 51.70224 | 0.01188 | 26202 ft | 395 kts | 301° |
| 2026-05-06 21:48 | 51.71717 | -0.02544 | 26625 ft | 398 kts | 302° |
| 2026-05-06 21:48 | 51.73237 | -0.06296 | 27055 ft | 401 kts | 304° |
| 2026-05-06 21:48 | 51.75035 | -0.09755 | 27479 ft | 405 kts | 314° |
| 2026-05-06 21:48 | 51.77200 | -0.12704 | 27909 ft | 410 kts | 323° |
| 2026-05-06 21:49 | 51.79643 | -0.15115 | 28337 ft | 413 kts | 328° |
| 2026-05-06 21:49 | 51.82132 | -0.17464 | 28787 ft | 415 kts | 328° |
| 2026-05-06 21:49 | 51.84628 | -0.19835 | 29200 ft | 417 kts | 327° |
| 2026-05-06 21:49 | 51.87137 | -0.22231 | 29615 ft | 420 kts | 327° |
| 2026-05-06 21:50 | 51.89658 | -0.24644 | 30018 ft | 422 kts | 327° |
| 2026-05-06 21:50 | 51.92193 | -0.27071 | 30362 ft | 424 kts | 327° |
| 2026-05-06 21:50 | 51.94742 | -0.29512 | 30692 ft | 427 kts | 327° |
| 2026-05-06 21:50 | 51.97301 | -0.31968 | 31022 ft | 429 kts | 327° |
| 2026-05-06 21:51 | 51.99873 | -0.34438 | 31324 ft | 431 kts | 327° |
| 2026-05-06 21:51 | 52.02457 | -0.36925 | 31624 ft | 433 kts | 327° |
| 2026-05-06 21:51 | 52.05044 | -0.39419 | 32041 ft | 432 kts | 327° |
| 2026-05-06 21:51 | 52.07628 | -0.41906 | 32496 ft | 431 kts | 328° |
| 2026-05-06 21:52 | 52.10200 | -0.44382 | 32939 ft | 430 kts | 328° |
| 2026-05-06 21:52 | 52.12770 | -0.46861 | 33356 ft | 429 kts | 328° |
| 2026-05-06 21:52 | 52.15334 | -0.49343 | 33786 ft | 428 kts | 327° |
| 2026-05-06 21:52 | 52.17887 | -0.51826 | 34176 ft | 428 kts | 327° |
| 2026-05-06 21:53 | 52.20446 | -0.54317 | 34512 ft | 428 kts | 327° |
| 2026-05-06 21:53 | 52.22999 | -0.56801 | 34823 ft | 428 kts | 328° |
| 2026-05-06 21:53 | 52.25557 | -0.59288 | 35123 ft | 428 kts | 328° |
| 2026-05-06 21:53 | 52.28119 | -0.61784 | 35413 ft | 428 kts | 328° |
| 2026-05-06 21:54 | 52.30679 | -0.64283 | 35724 ft | 428 kts | 328° |
| 2026-05-06 21:54 | 52.33233 | -0.66781 | 35969 ft | 429 kts | 328° |
| 2026-05-06 21:54 | 52.38316 | -0.71760 | 36044 ft | 422 kts | 328° |
| 2026-05-06 21:55 | 52.43339 | -0.76699 | 36045 ft | 421 kts | 328° |
| 2026-05-06 21:55 | 52.48354 | -0.81641 | 36049 ft | 420 kts | 328° |
| 2026-05-06 21:56 | 52.53362 | -0.86594 | 36051 ft | 420 kts | 328° |
| 2026-05-06 21:56 | 52.58368 | -0.91548 | 36047 ft | 420 kts | 328° |
| 2026-05-06 21:57 | 52.63366 | -0.96508 | 36028 ft | 420 kts | 328° |
| 2026-05-06 21:57 | 52.68366 | -1.01484 | 36026 ft | 419 kts | 328° |
| 2026-05-06 21:58 | 52.73340 | -1.06502 | 36027 ft | 419 kts | 324° |
| 2026-05-06 21:58 | 52.77701 | -1.12852 | 36087 ft | 418 kts | 316° |
| 2026-05-06 21:59 | 52.81920 | -1.19473 | 36091 ft | 418 kts | 316° |
| 2026-05-06 21:59 | 52.86136 | -1.26095 | 36089 ft | 418 kts | 316° |
| 2026-05-06 22:00 | 52.90345 | -1.32728 | 36087 ft | 418 kts | 316° |
| 2026-05-06 22:00 | 52.94551 | -1.39389 | 36086 ft | 418 kts | 316° |
| 2026-05-06 22:01 | 52.98749 | -1.46053 | 36084 ft | 418 kts | 316° |
| 2026-05-06 22:01 | 53.02947 | -1.52716 | 36080 ft | 417 kts | 317° |
| 2026-05-06 22:02 | 53.07138 | -1.59386 | 36081 ft | 417 kts | 317° |
| 2026-05-06 22:02 | 53.11310 | -1.66060 | 36077 ft | 416 kts | 317° |
| 2026-05-06 22:03 | 53.15473 | -1.72742 | 36081 ft | 415 kts | 317° |
| 2026-05-06 22:03 | 53.19633 | -1.79433 | 36080 ft | 415 kts | 317° |
| 2026-05-06 22:04 | 53.23869 | -1.85973 | 36078 ft | 414 kts | 324° |
| 2026-05-06 22:04 | 53.28806 | -1.90891 | 36076 ft | 413 kts | 331° |
| 2026-05-06 22:05 | 53.33809 | -1.95620 | 36072 ft | 413 kts | 331° |
| 2026-05-06 22:05 | 53.38790 | -2.00375 | 36068 ft | 412 kts | 330° |
| 2026-05-06 22:06 | 53.43770 | -2.05138 | 36077 ft | 412 kts | 330° |
| 2026-05-06 22:06 | 53.48755 | -2.09906 | 36064 ft | 412 kts | 331° |
| 2026-05-06 22:07 | 53.53734 | -2.14673 | 36064 ft | 412 kts | 331° |
| 2026-05-06 22:07 | 53.58417 | -2.20176 | 36061 ft | 413 kts | 316° |
| 2026-05-06 22:08 | 53.61711 | -2.28095 | 36057 ft | 417 kts | 296° |
| 2026-05-06 22:08 | 53.63848 | -2.37182 | 36044 ft | 418 kts | 293° |
| 2026-05-06 22:09 | 53.65937 | -2.46329 | 36043 ft | 419 kts | 293° |
| 2026-05-06 22:09 | 53.68025 | -2.55503 | 36037 ft | 419 kts | 293° |
| 2026-05-06 22:10 | 53.70096 | -2.64685 | 36028 ft | 419 kts | 293° |
| 2026-05-06 22:10 | 53.72174 | -2.73878 | 36038 ft | 419 kts | 293° |
| 2026-05-06 22:11 | 53.74239 | -2.83050 | 36044 ft | 418 kts | 293° |
| 2026-05-06 22:11 | 53.76292 | -2.92229 | 36039 ft | 417 kts | 293° |
| 2026-05-06 22:12 | 53.78344 | -3.01406 | 36037 ft | 417 kts | 293° |
| 2026-05-06 22:12 | 53.80395 | -3.10604 | 36010 ft | 419 kts | 293° |
| 2026-05-06 22:13 | 53.82431 | -3.19867 | 35993 ft | 421 kts | 292° |
| 2026-05-06 22:13 | 53.84466 | -3.29197 | 35595 ft | 425 kts | 292° |
| 2026-05-06 22:14 | 53.85510 | -3.33958 | 34507 ft | 436 kts | 294° |
| 2026-05-06 22:14 | 53.86566 | -3.38774 | 33885 ft | 434 kts | 294° |
| 2026-05-06 22:14 | 53.87610 | -3.43548 | 33260 ft | 431 kts | 294° |
| 2026-05-06 22:14 | 53.88638 | -3.48275 | 32502 ft | 425 kts | 293° |
| 2026-05-06 22:15 | 53.89653 | -3.52956 | 31707 ft | 420 kts | 293° |
| 2026-05-06 22:15 | 53.90653 | -3.57574 | 30939 ft | 415 kts | 293° |
| 2026-05-06 22:15 | 53.91640 | -3.62144 | 30204 ft | 410 kts | 292° |
| 2026-05-06 22:15 | 53.92616 | -3.66668 | 29373 ft | 406 kts | 292° |
| 2026-05-06 22:16 | 53.93577 | -3.71136 | 28626 ft | 400 kts | 292° |
| 2026-05-06 22:16 | 53.94498 | -3.75444 | 28189 ft | 387 kts | 291° |
| 2026-05-06 22:16 | 53.95402 | -3.79666 | 27770 ft | 375 kts | 291° |
| 2026-05-06 22:16 | 53.96408 | -3.83674 | 27357 ft | 363 kts | 300° |
| 2026-05-06 22:17 | 53.97650 | -3.87334 | 26970 ft | 355 kts | 301° |
| 2026-05-06 22:17 | 53.98880 | -3.90952 | 26554 ft | 352 kts | 301° |
| 2026-05-06 22:17 | 54.00093 | -3.94545 | 26155 ft | 349 kts | 301° |
| 2026-05-06 22:17 | 54.01291 | -3.98111 | 25739 ft | 346 kts | 301° |
| 2026-05-06 22:18 | 54.02479 | -4.01651 | 25322 ft | 343 kts | 300° |
| 2026-05-06 22:18 | 54.03657 | -4.05162 | 24910 ft | 340 kts | 300° |
| 2026-05-06 22:18 | 54.04827 | -4.08645 | 24480 ft | 338 kts | 300° |
| 2026-05-06 22:18 | 54.05993 | -4.12108 | 24064 ft | 336 kts | 301° |
| 2026-05-06 22:19 | 54.07293 | -4.15383 | 23639 ft | 333 kts | 306° |
| 2026-05-06 22:19 | 54.08630 | -4.18595 | 23165 ft | 331 kts | 305° |
| 2026-05-06 22:19 | 54.09956 | -4.21784 | 22747 ft | 328 kts | 305° |
| 2026-05-06 22:19 | 54.11265 | -4.24937 | 22341 ft | 324 kts | 305° |
| 2026-05-06 22:20 | 54.12557 | -4.28064 | 21930 ft | 321 kts | 304° |
| 2026-05-06 22:20 | 54.13835 | -4.31159 | 21541 ft | 318 kts | 304° |
| 2026-05-06 22:20 | 54.15106 | -4.34237 | 21134 ft | 316 kts | 304° |
| 2026-05-06 22:20 | 54.16365 | -4.37286 | 20747 ft | 313 kts | 304° |
| 2026-05-06 22:21 | 54.17613 | -4.40319 | 20370 ft | 312 kts | 304° |
| 2026-05-06 22:21 | 54.18856 | -4.43342 | 19983 ft | 310 kts | 303° |
| 2026-05-06 22:21 | 54.20090 | -4.46351 | 19603 ft | 309 kts | 303° |
| 2026-05-06 22:21 | 54.21316 | -4.49347 | 19225 ft | 307 kts | 303° |
| 2026-05-06 22:22 | 54.22542 | -4.52339 | 18843 ft | 307 kts | 303° |
| 2026-05-06 22:22 | 54.23762 | -4.55318 | 18482 ft | 306 kts | 303° |
| 2026-05-06 22:22 | 54.24981 | -4.58294 | 18079 ft | 305 kts | 303° |
| 2026-05-06 22:22 | 54.26180 | -4.61225 | 17716 ft | 304 kts | 303° |
| 2026-05-06 22:23 | 54.27385 | -4.64176 | 17345 ft | 302 kts | 303° |
| 2026-05-06 22:23 | 54.28583 | -4.67113 | 16982 ft | 300 kts | 303° |
| 2026-05-06 22:23 | 54.29771 | -4.70033 | 16626 ft | 298 kts | 303° |
| 2026-05-06 22:23 | 54.30966 | -4.72984 | 16271 ft | 297 kts | 302° |
| 2026-05-06 22:24 | 54.32122 | -4.75844 | 15928 ft | 296 kts | 302° |
| 2026-05-06 22:24 | 54.33289 | -4.78730 | 15583 ft | 294 kts | 302° |
| 2026-05-06 22:24 | 54.34455 | -4.81612 | 15245 ft | 293 kts | 302° |
| 2026-05-06 22:24 | 54.35616 | -4.84482 | 14904 ft | 293 kts | 302° |
| 2026-05-06 22:25 | 54.36772 | -4.87346 | 14564 ft | 292 kts | 302° |
| 2026-05-06 22:25 | 54.37927 | -4.90207 | 14222 ft | 291 kts | 302° |
| 2026-05-06 22:25 | 54.39080 | -4.93067 | 13878 ft | 291 kts | 302° |
| 2026-05-06 22:25 | 54.40227 | -4.95919 | 13503 ft | 290 kts | 302° |
| 2026-05-06 22:26 | 54.41371 | -4.98768 | 13155 ft | 289 kts | 302° |
| 2026-05-06 22:26 | 54.42508 | -5.01604 | 12805 ft | 287 kts | 302° |
| 2026-05-06 22:26 | 54.43638 | -5.04421 | 12466 ft | 286 kts | 302° |
| 2026-05-06 22:26 | 54.44763 | -5.07222 | 12104 ft | 284 kts | 302° |
| 2026-05-06 22:27 | 54.45887 | -5.10001 | 11772 ft | 283 kts | 302° |
| 2026-05-06 22:27 | 54.47007 | -5.12766 | 11425 ft | 281 kts | 302° |
| 2026-05-06 22:27 | 54.48122 | -5.15517 | 11070 ft | 280 kts | 302° |
| 2026-05-06 22:27 | 54.49234 | -5.18258 | 10717 ft | 279 kts | 302° |
| 2026-05-06 22:28 | 54.50353 | -5.20974 | 10359 ft | 278 kts | 306° |
| 2026-05-06 22:28 | 54.51725 | -5.23333 | 9990 ft | 280 kts | 319° |
| 2026-05-06 22:28 | 54.53256 | -5.25401 | 9597 ft | 280 kts | 319° |
| 2026-05-06 22:28 | 54.54267 | -5.26767 | 9349 ft | 278 kts | 319° |
| 2026-05-06 22:29 | 54.55786 | -5.28822 | 8969 ft | 276 kts | 319° |
| 2026-05-06 22:29 | 54.57291 | -5.30864 | 8581 ft | 275 kts | 319° |
| 2026-05-06 22:29 | 54.58787 | -5.32894 | 8200 ft | 273 kts | 319° |
| 2026-05-06 22:29 | 54.60272 | -5.34912 | 7806 ft | 271 kts | 319° |
| 2026-05-06 22:30 | 54.61753 | -5.36928 | 7401 ft | 270 kts | 319° |
| 2026-05-06 22:30 | 54.63223 | -5.38930 | 7013 ft | 269 kts | 319° |
| 2026-05-06 22:30 | 54.64689 | -5.40935 | 6610 ft | 268 kts | 320° |
| 2026-05-06 22:30 | 54.66146 | -5.42933 | 6197 ft | 267 kts | 320° |
| 2026-05-06 22:31 | 54.67602 | -5.44929 | 5776 ft | 266 kts | 320° |
| 2026-05-06 22:31 | 54.69048 | -5.46911 | 5360 ft | 265 kts | 320° |
| 2026-05-06 22:31 | 54.70485 | -5.48880 | 4956 ft | 263 kts | 320° |
| 2026-05-06 22:31 | 54.71913 | -5.50843 | 4527 ft | 261 kts | 320° |
| 2026-05-06 22:32 | 54.73329 | -5.52793 | 4105 ft | 260 kts | 319° |
| 2026-05-06 22:32 | 54.74719 | -5.54704 | 3947 ft | 248 kts | 320° |
| 2026-05-06 22:32 | 54.76027 | -5.56500 | 3879 ft | 233 kts | 319° |
| 2026-05-06 22:32 | 54.77251 | -5.58216 | 3787 ft | 221 kts | 314° |
| 2026-05-06 22:33 | 54.78125 | -5.60305 | 3693 ft | 209 kts | 292° |
| 2026-05-06 22:33 | 54.78503 | -5.62609 | 3612 ft | 196 kts | 273° |
| 2026-05-06 22:33 | 54.78431 | -5.64926 | 3524 ft | 188 kts | 255° |
| 2026-05-06 22:33 | 54.77959 | -5.67013 | 3445 ft | 185 kts | 237° |
| 2026-05-06 22:34 | 54.77150 | -5.68735 | 3367 ft | 184 kts | 220° |
| 2026-05-06 22:34 | 54.76130 | -5.70023 | 3293 ft | 185 kts | 214° |
| 2026-05-06 22:34 | 54.75080 | -5.71297 | 3096 ft | 184 kts | 214° |
| 2026-05-06 22:34 | 54.74033 | -5.72563 | 2887 ft | 182 kts | 214° |
| 2026-05-06 22:35 | 54.72990 | -5.73823 | 2616 ft | 180 kts | 213° |
| 2026-05-06 22:35 | 54.71984 | -5.75035 | 2372 ft | 176 kts | 213° |
| 2026-05-06 22:35 | 54.71010 | -5.76208 | 2134 ft | 164 kts | 213° |
| 2026-05-06 22:35 | 54.70119 | -5.77282 | 1926 ft | 146 kts | 213° |
| 2026-05-06 22:36 | 54.69332 | -5.78229 | 1738 ft | 132 kts | 212° |
| 2026-05-06 22:36 | 54.68597 | -5.79112 | 1542 ft | 126 kts | 212° |
| 2026-05-06 22:36 | 54.67883 | -5.79970 | 1372 ft | 125 kts | 213° |
| 2026-05-06 22:36 | 54.67170 | -5.80825 | 1193 ft | 124 kts | 213° |
| 2026-05-06 22:37 | 54.66458 | -5.81678 | 1002 ft | 125 kts | 213° |
| 2026-05-06 22:37 | 54.65744 | -5.82531 | 774 ft | 125 kts | 213° |
| 2026-05-06 22:37 | 54.65034 | -5.83397 | 612 ft | 124 kts | 215° |
| 2026-05-06 22:37 | 54.64333 | -5.84246 | 482 ft | 123 kts | 213° |
| 2026-05-06 22:38 | 54.63629 | -5.85076 | 314 ft | 123 kts | 215° |
| 2026-05-06 22:38 | 54.62928 | -5.85924 | 150 ft | 122 kts | 215° |
| 2026-05-06 22:38 | 54.62232 | -5.86750 | 25 ft | 115 kts | 214° |
| 2026-05-06 22:38 | 54.61773 | -5.87298 | 19 ft | 46 kts | 215° |
| 2026-05-06 22:39 | 54.61537 | -5.87581 | 14 ft | 39 kts | 214° |
| 2026-05-06 22:39 | 54.61358 | -5.87792 | 16 ft | 16 kts | 213° |
| 2026-05-06 22:39 | 54.61281 | -5.87719 | 15 ft | 14 kts | 124° |
| 2026-05-06 22:39 | 54.61260 | -5.87606 | 17 ft | 8 kts | 62° |
| 2026-05-06 22:40 | 54.61300 | -5.87546 | 19 ft | 7 kts | 35° |
| 2026-05-06 22:40 | 54.61352 | -5.87484 | 21 ft | 11 kts | 34° |
| 2026-05-06 22:40 | 54.61405 | -5.87392 | 21 ft | 11 kts | 56° |
| 2026-05-06 22:40 | 54.61464 | -5.87300 | 22 ft | 12 kts | 34° |
| 2026-05-06 22:41 | 54.61522 | -5.87161 | 21 ft | 7 kts | 157° |
| 2026-05-06 22:41 | 54.61500 | -5.87145 | 23 ft | 2 kts | 156° |
| 2026-05-06 22:41 | 54.61498 | -5.87143 | 23 ft | 0 kts | 156° |